Warning: A non-numeric value encountered in /customers/b/4/5/meteo45.com/httpd.www/station_meteo/wsFunctions.php on line 312 Warning: A non-numeric value encountered in /customers/b/4/5/meteo45.com/httpd.www/station_meteo/wsFunctions.php on line 312
Bienvenue sur la page dédiée à la station météo de Courtenay (Loiret)

Retrouvez également nos données météorologiques sur:

UK Metoffice

Weather Underground

AWEKAS

Citizen Weather Observer Program (CWOP)



Rapports METAR à proximité

Warning: A non-numeric value encountered in /customers/b/4/5/meteo45.com/httpd.www/station_meteo/metar/metarDisplay.php on line 166 Warning: A non-numeric value encountered in /customers/b/4/5/meteo45.com/httpd.www/station_meteo/metar/metarDisplay.php on line 166 Warning: A non-numeric value encountered in /customers/b/4/5/meteo45.com/httpd.www/station_meteo/metar/metarDisplay.php on line 166 Warning: A non-numeric value encountered in /customers/b/4/5/meteo45.com/httpd.www/station_meteo/metar/metarDisplay.php on line 166 Warning: A non-numeric value encountered in /customers/b/4/5/meteo45.com/httpd.www/station_meteo/metar/metarDisplay.php on line 166
   
LFOJ - Montargis
Mise à jour: 24-03-2019 01:30
Brouillard, Partiellement nuageux  
Brouillard, Partiellement nuageux  
   Vent: Nord 7.4 km/h
Vent: Nord 7.4 km/h
Température: 3°C
éolien: 1°C
Point de rosée: 2°C
Humidité: 93%
Pression atmosphérique: 1027 hPa
Nuages: Partiellement nuageux
Visibilité: 4 km
Nébulosité: Partiellement nuageux
LFOJ 240030Z AUTO 01004KT 4300 BR NSC 03/02 Q1027
LFOJ - Orléans
Mise à jour: 24-03-2019 01:30
Brouillard, Partiellement nuageux  
Brouillard, Partiellement nuageux  
   Vent: Nord 7.4 km/h
Vent: Nord 7.4 km/h
Température: 3°C
éolien: 1°C
Point de rosée: 2°C
Humidité: 93%
Pression atmosphérique: 1027 hPa
Nuages: Partiellement nuageux
Visibilité: 4 km
Nébulosité: Partiellement nuageux
LFOJ 240030Z AUTO 01004KT 4300 BR NSC 03/02 Q1027
LFQB - Sens
Mise à jour: 24-03-2019 01:30
Brouillard, Partiellement nuageux  
Brouillard, Partiellement nuageux  
   Vent: ONO 14.8 km/h
Vent: ONO 14.8 km/h
Température: 3°C
éolien: -1°C
Point de rosée: 2°C
Humidité: 93%
Pression atmosphérique: 1027 hPa
Nuages: Partiellement nuageux
Visibilité: 4 km
Nébulosité: Partiellement nuageux
LFQB 240030Z AUTO 29008KT 4300 BR NSC 03/02 Q1027
LFQB - Auxerre
Mise à jour: 24-03-2019 01:30
Brouillard, Partiellement nuageux  
Brouillard, Partiellement nuageux  
   Vent: ONO 14.8 km/h
Vent: ONO 14.8 km/h
Température: 3°C
éolien: -1°C
Point de rosée: 2°C
Humidité: 93%
Pression atmosphérique: 1027 hPa
Nuages: Partiellement nuageux
Visibilité: 4 km
Nébulosité: Partiellement nuageux
LFQB 240030Z AUTO 29008KT 4300 BR NSC 03/02 Q1027
LFPO - Paris
Mise à jour: 24-03-2019 01:30
Nuageux  
Nuageux  
   Vent: NNE 11.1 km/h
Vent: NNE 11.1 km/h
Température: 6°C
éolien: 4°C
Point de rosée: 5°C
Humidité: 93%
Pression atmosphérique: 1028 hPa
Nuages: Nuageux
Visibilité: 6 km
Nébulosité: Nuageux 3300 ft
LFPO 240030Z 02006KT 6000 BKN033 06/05 Q1028 NOSIG
LFLX - Bourges
Mise à jour: 24-03-2019 01:30
Partiellement nuageux  
Partiellement nuageux  
   Vent: Nord 11.1 km/h
Vent: Nord 11.1 km/h
Température: 4°C
éolien: 1°C
Point de rosée: 2°C
Humidité: 87%
Pression atmosphérique: 1026 hPa
Nuages: Partiellement nuageux
Visibilité: 6 km
Nébulosité: Partiellement nuageux
LFLX 240030Z AUTO 36006KT 6000 NSC 04/02 Q1026 TEMPO 0300 FG VV///

Original script by  Saratoga-weather.org Adapted for the template by  Weerstation Leuven

Matériel utilisé:

Programme Météo
Meteohub

Meteohub